createdAt,value
2018-11-28T00:00:21.554Z,16.00
2018-11-28T00:02:50.230Z,15.13
2018-11-28T00:05:18.460Z,15.97
2018-11-28T00:07:46.605Z,15.70
2018-11-28T00:10:15.331Z,15.03
2018-11-28T00:12:43.472Z,16.03
2018-11-28T00:15:12.791Z,15.23
2018-11-28T00:17:40.939Z,15.20
2018-11-28T00:20:11.296Z,16.20
2018-11-28T00:22:39.447Z,15.67
2018-11-28T00:25:08.444Z,15.23
2018-11-28T00:27:36.558Z,14.83
2018-11-28T00:30:10.570Z,15.77
2018-11-28T00:32:39.028Z,16.03
2018-11-28T00:35:08.848Z,15.63
2018-11-28T00:37:37.043Z,15.53
2018-11-28T00:40:05.907Z,14.97
2018-11-28T00:42:34.288Z,15.13
2018-11-28T00:45:02.425Z,15.83
2018-11-28T00:47:30.829Z,16.20
2018-11-28T00:49:58.960Z,15.27
2018-11-28T00:52:27.100Z,18.13
2018-11-28T00:54:55.231Z,17.97
2018-11-28T00:57:23.376Z,17.47
2018-11-28T00:59:51.529Z,17.33
2018-11-28T01:02:19.670Z,18.77
2018-11-28T01:04:48.116Z,18.53
2018-11-28T01:07:16.295Z,20.57
2018-11-28T01:09:44.372Z,21.13
2018-11-28T01:12:12.536Z,19.23
2018-11-28T01:14:40.680Z,18.73
2018-11-28T01:17:08.910Z,19.37
2018-11-28T01:19:37.046Z,19.87
2018-11-28T01:22:05.290Z,20.67
2018-11-28T01:24:33.424Z,20.60
2018-11-28T01:27:02.359Z,20.17
2018-11-28T01:29:30.497Z,18.43
2018-11-28T01:31:58.657Z,20.90
2018-11-28T01:34:27.102Z,19.57
2018-11-28T01:36:55.233Z,20.57
2018-11-28T01:39:23.396Z,19.13
2018-11-28T01:41:51.557Z,17.87
2018-11-28T01:44:19.693Z,17.07
2018-11-28T01:46:47.864Z,17.27
2018-11-28T01:49:16.024Z,17.60
2018-11-28T01:51:44.166Z,15.73
2018-11-28T01:54:12.298Z,17.13
2018-11-28T01:56:40.419Z,17.00
2018-11-28T01:59:08.551Z,18.10
2018-11-28T02:01:36.696Z,18.50
2018-11-28T02:04:04.908Z,18.20
2018-11-28T02:06:33.036Z,17.70
2018-11-28T02:09:01.415Z,19.20
2018-11-28T02:11:29.549Z,20.70
2018-11-28T02:13:57.683Z,20.63
2018-11-28T02:16:25.815Z,19.80
2018-11-28T02:18:53.948Z,21.33
2018-11-28T02:21:22.075Z,18.57
2018-11-28T02:23:50.241Z,18.67
2018-11-28T02:26:18.385Z,17.70
2018-11-28T02:28:46.522Z,19.70
2018-11-28T02:31:14.665Z,19.43
2018-11-28T02:33:42.816Z,20.43
2018-11-28T02:36:10.947Z,21.07
2018-11-28T02:38:39.101Z,19.77
2018-11-28T02:41:07.237Z,20.40
2018-11-28T02:43:35.385Z,20.00
2018-11-28T02:46:14.940Z,21.47
2018-11-28T02:48:43.098Z,19.77
2018-11-28T02:51:11.243Z,20.60
2018-11-28T02:53:39.385Z,20.93
2018-11-28T02:56:07.520Z,19.90
2018-11-28T02:58:35.655Z,18.00
2018-11-28T03:01:03.791Z,20.30
2018-11-28T03:03:31.928Z,20.13
2018-11-28T03:06:00.053Z,18.10
2018-11-28T03:08:28.196Z,19.40
2018-11-28T03:10:56.343Z,17.83
2018-11-28T03:13:24.749Z,20.17
2018-11-28T03:15:54.543Z,19.27
2018-11-28T03:18:23.198Z,19.73
2018-11-28T03:20:51.373Z,20.80
2018-11-28T03:23:19.515Z,21.30
2018-11-28T03:25:47.640Z,19.70
2018-11-28T03:28:16.105Z,22.00
2018-11-28T03:30:44.229Z,22.80
2018-11-28T03:33:12.454Z,18.67
2018-11-28T03:35:40.592Z,20.17
2018-11-28T03:38:08.730Z,19.73
2018-11-28T03:40:36.876Z,19.77
2018-11-28T03:43:05.324Z,19.20
2018-11-28T03:45:33.466Z,20.03
2018-11-28T03:48:01.613Z,20.47
2018-11-28T03:50:29.748Z,19.90
2018-11-28T03:52:57.933Z,21.50
2018-11-28T03:55:26.088Z,22.00
2018-11-28T03:57:54.248Z,21.27
2018-11-28T04:00:22.439Z,26.73
2018-11-28T04:02:50.760Z,19.37
2018-11-28T04:05:18.910Z,20.17
2018-11-28T04:07:47.068Z,20.80
2018-11-28T04:10:15.713Z,19.30
2018-11-28T04:12:44.416Z,17.83
2018-11-28T04:15:15.150Z,19.83
2018-11-28T04:17:43.344Z,19.87
2018-11-28T04:20:12.896Z,16.27
2018-11-28T04:22:41.022Z,18.00
2018-11-28T04:25:10.108Z,18.03
2018-11-28T04:27:38.204Z,15.97
2018-11-28T04:30:10.021Z,15.80
2018-11-28T04:32:38.164Z,18.27
2018-11-28T04:35:08.098Z,16.10
2018-11-28T04:37:36.248Z,15.93
2018-11-28T04:40:07.092Z,16.50
2018-11-28T04:42:35.220Z,16.43
2018-11-28T04:45:03.659Z,17.60
2018-11-28T04:47:31.820Z,16.67
2018-11-28T04:49:59.952Z,14.47
2018-11-28T04:52:28.096Z,14.30
2018-11-28T04:54:56.233Z,16.50
2018-11-28T04:57:24.632Z,18.00
2018-11-28T04:59:52.776Z,16.63
2018-11-28T05:02:20.895Z,15.63
2018-11-28T05:04:49.031Z,15.13
2018-11-28T05:07:31.725Z,14.53
2018-11-28T05:09:59.880Z,15.33
2018-11-28T05:12:28.008Z,15.67
2018-11-28T05:14:56.148Z,15.17
2018-11-28T05:17:24.329Z,15.57
2018-11-28T05:19:52.463Z,14.87
2018-11-28T05:22:20.597Z,14.20
2018-11-28T05:24:48.735Z,15.47
2018-11-28T05:27:16.888Z,19.87
2018-11-28T05:29:45.048Z,15.63
2018-11-28T05:32:13.187Z,14.97
2018-11-28T05:34:41.352Z,17.00
2018-11-28T05:37:09.486Z,16.50
2018-11-28T05:39:37.968Z,16.07
2018-11-28T05:42:06.257Z,16.10
2018-11-28T05:44:34.544Z,15.40
2018-11-28T05:47:02.973Z,14.57
2018-11-28T05:49:31.128Z,14.27
2018-11-28T05:51:59.265Z,15.17
2018-11-28T05:54:27.387Z,14.27
2018-11-28T05:56:55.783Z,12.90
2018-11-28T05:59:27.345Z,13.87
2018-11-28T06:01:52.077Z,12.90
2018-11-28T06:04:20.213Z,13.93
2018-11-28T06:06:48.344Z,15.30
2018-11-28T06:09:16.480Z,15.07
2018-11-28T06:11:44.762Z,15.67
2018-11-28T06:14:12.916Z,14.47
2018-11-28T06:16:41.094Z,15.80
2018-11-28T06:19:10.304Z,14.30
2018-11-28T06:21:38.505Z,13.77
2018-11-28T06:24:06.710Z,12.77
2018-11-28T06:26:34.860Z,15.37
2018-11-28T06:29:03.020Z,14.40
2018-11-28T06:31:31.475Z,14.17
2018-11-28T06:33:59.640Z,13.83
2018-11-28T06:36:27.869Z,14.10
2018-11-28T06:38:56.013Z,13.77
2018-11-28T06:41:24.429Z,12.40
2018-11-28T06:43:52.612Z,12.47
2018-11-28T06:46:22.099Z,13.57
2018-11-28T06:48:51.171Z,13.57
2018-11-28T06:51:21.168Z,13.77
2018-11-28T06:53:49.324Z,15.00
2018-11-28T06:56:17.520Z,12.57
2018-11-28T06:58:45.684Z,13.17
2018-11-28T07:01:14.097Z,16.13
2018-11-28T07:03:42.340Z,13.50
2018-11-28T07:06:10.488Z,14.73
2018-11-28T07:08:38.644Z,13.27
2018-11-28T07:11:07.308Z,14.43
2018-11-28T07:13:35.506Z,14.57
2018-11-28T07:16:03.646Z,13.63
2018-11-28T07:18:43.135Z,13.77
2018-11-28T07:21:11.281Z,16.20
2018-11-28T07:23:39.417Z,14.67
2018-11-28T07:26:07.605Z,15.50
2018-11-28T07:28:35.751Z,16.07
2018-11-28T07:31:03.919Z,15.23
2018-11-28T07:33:32.078Z,13.33
2018-11-28T07:36:00.214Z,14.20
2018-11-28T07:38:28.368Z,13.40
2018-11-28T07:40:56.549Z,13.57
2018-11-28T07:43:24.668Z,12.80
2018-11-28T07:45:52.893Z,13.10
2018-11-28T07:48:21.057Z,13.00
2018-11-28T07:50:49.183Z,12.80
2018-11-28T07:53:17.342Z,13.87
2018-11-28T07:55:45.475Z,12.97
2018-11-28T07:58:13.624Z,12.50
2018-11-28T08:00:41.772Z,12.63
2018-11-28T08:03:09.927Z,13.10
2018-11-28T08:05:38.772Z,11.80
2018-11-28T08:08:08.562Z,12.50
2018-11-28T08:10:36.724Z,12.27
2018-11-28T08:13:05.320Z,12.30
2018-11-28T08:15:33.805Z,12.70
2018-11-28T08:18:02.168Z,11.90
2018-11-28T08:20:30.595Z,11.57
2018-11-28T08:22:58.743Z,11.97
2018-11-28T08:25:28.020Z,11.83
2018-11-28T08:27:55.289Z,12.10
2018-11-28T08:30:25.784Z,13.07
2018-11-28T08:32:55.479Z,12.23
2018-11-28T08:35:23.946Z,12.90
2018-11-28T08:37:52.180Z,12.87
2018-11-28T08:40:25.125Z,11.87
2018-11-28T08:42:54.498Z,13.27
2018-11-28T08:45:22.840Z,12.50
2018-11-28T08:47:52.288Z,14.33
2018-11-28T08:50:25.519Z,13.77
2018-11-28T08:52:52.385Z,13.20
2018-11-28T08:55:20.592Z,14.07
2018-11-28T08:57:48.792Z,13.57
2018-11-28T09:00:19.746Z,13.93
2018-11-28T09:02:48.917Z,14.27
2018-11-28T09:05:17.077Z,14.10
2018-11-28T09:07:45.227Z,15.03
2018-11-28T09:10:14.581Z,13.87
2018-11-28T09:12:42.784Z,14.67
2018-11-28T09:15:12.333Z,14.63
2018-11-28T09:17:40.924Z,15.97
2018-11-28T09:20:10.840Z,17.47
2018-11-28T09:22:38.974Z,16.93
2018-11-28T09:25:09.196Z,17.00
2018-11-28T09:27:37.345Z,17.17
2018-11-28T09:30:09.340Z,17.37
2018-11-28T09:32:37.650Z,15.67
2018-11-28T09:35:07.719Z,16.23
2018-11-28T09:37:35.953Z,17.17
2018-11-28T09:40:06.644Z,16.53
2018-11-28T09:42:34.781Z,17.63
2018-11-28T09:45:02.927Z,16.80
2018-11-28T09:47:31.082Z,17.40
2018-11-28T09:49:59.226Z,17.83
2018-11-28T09:52:27.365Z,16.67
2018-11-28T09:54:55.496Z,16.67
2018-11-28T09:57:23.657Z,16.80
2018-11-28T09:59:51.784Z,16.10
2018-11-28T10:02:19.933Z,16.60
2018-11-28T10:04:48.128Z,15.43
2018-11-28T10:07:16.264Z,15.33
2018-11-28T10:09:44.445Z,16.43
2018-11-28T10:12:12.626Z,16.60
2018-11-28T10:14:40.768Z,15.57
2018-11-28T10:17:08.900Z,15.43
2018-11-28T10:19:37.032Z,14.50
2018-11-28T10:22:05.744Z,14.83
2018-11-28T10:24:34.412Z,15.77
2018-11-28T10:27:02.077Z,14.47
2018-11-28T10:29:30.224Z,15.27
2018-11-28T10:31:58.366Z,15.37
2018-11-28T10:34:29.508Z,15.77
2018-11-28T10:36:54.726Z,15.23
2018-11-28T10:39:22.860Z,15.03
2018-11-28T10:41:51.009Z,15.17
2018-11-28T10:44:19.162Z,15.23
2018-11-28T10:46:47.289Z,15.33
2018-11-28T10:49:15.428Z,14.73
2018-11-28T10:51:43.568Z,15.17
2018-11-28T10:54:11.722Z,15.07
2018-11-28T10:56:39.883Z,15.03
2018-11-28T10:59:08.036Z,16.37
2018-11-28T11:01:40.423Z,15.50
2018-11-28T11:04:15.140Z,14.20
2018-11-28T11:06:49.025Z,15.67
2018-11-28T11:09:22.669Z,15.50
2018-11-28T11:11:56.371Z,13.97
2018-11-28T11:14:29.984Z,15.43
2018-11-28T11:16:58.157Z,14.80
2018-11-28T11:19:26.295Z,15.03
2018-11-28T11:21:54.465Z,13.83
2018-11-28T11:24:22.633Z,14.37
2018-11-28T11:26:50.818Z,15.13
2018-11-28T11:29:18.960Z,16.00
2018-11-28T11:31:47.094Z,14.57
2018-11-28T11:34:15.364Z,15.63
2018-11-28T11:36:43.404Z,14.50
2018-11-28T11:39:11.660Z,15.37
2018-11-28T11:41:39.832Z,15.87
2018-11-28T11:44:07.957Z,15.60
2018-11-28T11:46:36.114Z,15.40
2018-11-28T11:49:04.523Z,15.23
2018-11-28T11:51:32.772Z,15.47
2018-11-28T11:54:00.934Z,15.83
2018-11-28T11:56:29.107Z,16.60
2018-11-28T11:58:57.233Z,14.97
2018-11-28T12:01:25.440Z,16.10
2018-11-28T12:03:53.581Z,14.93
2018-11-28T12:06:21.729Z,16.37
2018-11-28T12:08:49.855Z,15.90
2018-11-28T12:11:17.996Z,16.03
2018-11-28T12:13:46.170Z,15.87
2018-11-28T12:16:14.328Z,15.67
2018-11-28T12:18:42.444Z,16.00
2018-11-28T12:21:10.588Z,15.67
2018-11-28T12:23:38.736Z,15.97
2018-11-28T12:26:06.872Z,15.67
2018-11-28T12:28:35.025Z,16.17
2018-11-28T12:31:03.150Z,14.83
2018-11-28T12:33:31.312Z,14.90
2018-11-28T12:35:59.452Z,15.37
2018-11-28T12:38:27.608Z,14.47
2018-11-28T12:40:55.863Z,15.53
2018-11-28T12:43:24.039Z,14.53
2018-11-28T12:45:52.188Z,14.83
2018-11-28T12:48:20.335Z,14.47
2018-11-28T12:50:48.460Z,14.50
2018-11-28T12:53:16.643Z,14.77
2018-11-28T12:55:44.862Z,15.80
2018-11-28T12:58:15.392Z,14.57
2018-11-28T13:00:43.595Z,14.50
2018-11-28T13:03:13.187Z,15.73
2018-11-28T13:05:41.386Z,14.07
2018-11-28T13:08:09.525Z,15.07
2018-11-28T13:10:38.916Z,15.73
2018-11-28T13:13:09.132Z,15.30
2018-11-28T13:15:37.973Z,15.60
2018-11-28T13:18:07.545Z,15.87
2018-11-28T13:20:35.725Z,16.23
2018-11-28T13:23:03.849Z,15.60
2018-11-28T13:25:32.047Z,15.50
2018-11-28T13:28:00.275Z,14.97
2018-11-28T13:30:28.427Z,14.83
2018-11-28T13:32:56.612Z,15.07
2018-11-28T13:35:26.752Z,14.67
2018-11-28T13:37:58.449Z,14.93
2018-11-28T13:40:26.566Z,15.93
2018-11-28T13:42:54.798Z,14.60
2018-11-28T13:45:34.095Z,14.70
2018-11-28T13:48:02.324Z,13.63
2018-11-28T13:50:30.797Z,13.27
2018-11-28T13:53:00.348Z,13.90
2018-11-28T13:55:38.597Z,13.37
2018-11-28T13:58:04.266Z,14.23
2018-11-28T14:00:32.599Z,13.17
2018-11-28T14:03:00.789Z,14.20
2018-11-28T14:05:29.131Z,14.30
2018-11-28T14:07:57.319Z,13.10
2018-11-28T14:10:25.719Z,13.10
2018-11-28T14:12:54.099Z,13.80
2018-11-28T14:15:22.929Z,12.77
2018-11-28T14:17:53.629Z,12.47
2018-11-28T14:20:21.840Z,12.50
2018-11-28T14:22:50.002Z,12.93
2018-11-28T14:25:18.204Z,12.80
2018-11-28T14:27:46.368Z,13.40
2018-11-28T14:30:18.717Z,12.73
2018-11-28T14:32:47.159Z,12.70
2018-11-28T14:35:15.553Z,12.83
2018-11-28T14:37:43.820Z,12.53
2018-11-28T14:40:17.201Z,13.27
2018-11-28T14:42:46.439Z,13.23
2018-11-28T14:45:17.301Z,12.90
2018-11-28T14:47:45.798Z,11.93
2018-11-28T14:50:15.763Z,12.40
2018-11-28T14:52:44.108Z,12.07
2018-11-28T14:55:14.573Z,13.07
2018-11-28T14:57:42.751Z,12.27
2018-11-28T15:00:15.244Z,12.90
2018-11-28T15:02:44.553Z,12.17
2018-11-28T15:07:25.751Z,12.20
2018-11-28T15:09:59.040Z,11.97
2018-11-28T15:12:29.109Z,12.80
2018-11-28T15:14:57.336Z,13.07
2018-11-28T15:17:25.512Z,12.30
2018-11-28T15:19:53.716Z,12.47
2018-11-28T15:22:21.955Z,12.03
2018-11-28T15:24:50.116Z,11.80
2018-11-28T15:27:18.290Z,11.17
2018-11-28T15:29:46.588Z,12.27
2018-11-28T15:32:14.873Z,11.97
2018-11-28T15:34:43.065Z,12.40
2018-11-28T15:37:11.335Z,12.10
2018-11-28T15:39:39.460Z,11.27
2018-11-28T15:42:07.606Z,11.83
2018-11-28T15:44:35.712Z,11.80
2018-11-28T15:47:03.843Z,11.73
2018-11-28T15:49:32.002Z,13.13
2018-11-28T15:52:00.136Z,12.57
2018-11-28T15:54:28.277Z,11.37
2018-11-28T15:56:56.505Z,11.67
2018-11-28T15:59:24.761Z,11.67
2018-11-28T16:01:53.873Z,11.33
2018-11-28T16:04:22.023Z,12.27
2018-11-28T16:06:50.161Z,12.07
2018-11-28T16:09:23.562Z,12.27
2018-11-28T16:11:51.754Z,12.03
2018-11-28T16:14:19.935Z,11.97
2018-11-28T16:16:48.133Z,12.03
2018-11-28T16:19:16.284Z,12.80
2018-11-28T16:21:44.415Z,12.17
2018-11-28T16:24:12.675Z,11.97
2018-11-28T16:26:40.856Z,12.07
2018-11-28T16:29:09.033Z,12.37
2018-11-28T16:31:37.173Z,12.63
2018-11-28T16:34:05.454Z,12.13
2018-11-28T16:36:33.588Z,12.30
2018-11-28T16:39:01.723Z,13.10
2018-11-28T16:41:29.895Z,11.30
2018-11-28T16:43:58.057Z,12.53
2018-11-28T16:46:26.181Z,12.03
2018-11-28T16:48:54.431Z,12.87
2018-11-28T16:51:22.591Z,13.43
2018-11-28T16:53:50.720Z,12.97
2018-11-28T16:56:18.850Z,12.87
2018-11-28T16:58:47.007Z,12.63
2018-11-28T17:01:15.140Z,13.13
2018-11-28T17:03:43.290Z,13.97
2018-11-28T17:06:11.489Z,16.63
2018-11-28T17:08:39.616Z,25.77
2018-11-28T17:11:07.759Z,19.30
2018-11-28T17:13:35.903Z,17.80
2018-11-28T17:16:04.035Z,16.27
2018-11-28T17:18:32.204Z,19.10
2018-11-28T17:21:00.338Z,18.37
2018-11-28T17:23:28.485Z,25.97
2018-11-28T17:25:56.624Z,18.03
2018-11-28T17:28:24.768Z,14.53
2018-11-28T17:30:52.922Z,13.97
2018-11-28T17:33:21.069Z,13.67
2018-11-28T17:35:49.232Z,13.50
2018-11-28T17:38:17.384Z,14.50
2018-11-28T17:40:45.521Z,14.00
2018-11-28T17:43:13.683Z,14.17
2018-11-28T17:45:41.947Z,13.83
2018-11-28T17:48:10.098Z,13.27
2018-11-28T17:50:38.252Z,13.17
2018-11-28T17:53:09.580Z,13.40
2018-11-28T17:55:43.467Z,14.13
2018-11-28T17:58:11.544Z,13.13
2018-11-28T18:00:39.695Z,12.90
2018-11-28T18:03:07.853Z,14.93
2018-11-28T18:05:36.003Z,15.70
2018-11-28T18:08:04.173Z,14.33
2018-11-28T18:10:32.349Z,14.67
2018-11-28T18:13:07.728Z,15.00
2018-11-28T18:15:35.950Z,15.37
2018-11-28T18:18:04.692Z,17.80
2018-11-28T18:20:32.963Z,18.87
2018-11-28T18:23:01.136Z,17.10
2018-11-28T18:25:30.707Z,16.53
2018-11-28T18:27:58.940Z,15.77
2018-11-28T18:30:27.173Z,16.00
2018-11-28T18:32:55.354Z,14.17
2018-11-28T18:35:23.611Z,13.87
2018-11-28T18:37:51.869Z,13.73
2018-11-28T18:40:20.002Z,13.73
2018-11-28T18:42:48.139Z,14.93
2018-11-28T18:45:18.596Z,15.10
2018-11-28T18:47:46.863Z,13.53
2018-11-28T18:50:15.054Z,13.77
2018-11-28T18:52:45.125Z,15.00
2018-11-28T18:55:16.748Z,14.50
2018-11-28T18:57:43.540Z,14.67
2018-11-28T19:00:16.991Z,15.40
2018-11-28T19:02:45.139Z,14.73
2018-11-28T19:05:19.950Z,15.17
2018-11-28T19:07:48.092Z,14.83
2018-11-28T19:10:18.280Z,14.63
2018-11-28T19:12:46.396Z,16.30
2018-11-28T19:15:20.819Z,16.07
2018-11-28T19:17:49.220Z,15.27
2018-11-28T19:20:18.491Z,15.33
2018-11-28T19:22:47.445Z,15.93
2018-11-28T19:25:16.679Z,16.77
2018-11-28T19:27:45.341Z,16.77
2018-11-28T19:30:20.012Z,15.70
2018-11-28T19:32:48.172Z,24.87
2018-11-28T19:35:16.337Z,26.50
2018-11-28T19:37:44.460Z,23.47
2018-11-28T19:42:37.708Z,20.97
2018-11-28T19:45:06.161Z,19.97
2018-11-28T19:47:34.283Z,20.03
2018-11-28T19:50:02.554Z,20.23
2018-11-28T19:52:30.717Z,19.00
2018-11-28T19:54:59.219Z,19.20
2018-11-28T19:57:27.466Z,18.60
2018-11-28T19:59:55.643Z,18.33
2018-11-28T20:02:23.848Z,18.90
2018-11-28T20:04:52.022Z,17.80
2018-11-28T20:07:20.292Z,18.23
2018-11-28T20:09:52.698Z,19.47
2018-11-28T20:12:20.941Z,18.67
2018-11-28T20:14:49.115Z,18.40
2018-11-28T20:17:17.296Z,17.80
2018-11-28T20:19:45.532Z,16.37
2018-11-28T20:22:13.726Z,17.17
2018-11-28T20:24:41.919Z,15.63
2018-11-28T20:27:10.198Z,18.80
2018-11-28T20:29:38.492Z,17.93
2018-11-28T20:32:06.723Z,17.10
2018-11-28T20:34:34.967Z,16.30
2018-11-28T20:37:03.166Z,17.07
2018-11-28T20:39:31.311Z,14.70
2018-11-28T20:41:59.596Z,16.63
2018-11-28T20:44:27.721Z,17.43
2018-11-28T20:46:55.962Z,18.00
2018-11-28T20:49:24.112Z,16.27
2018-11-28T20:51:52.298Z,14.87
2018-11-28T20:54:20.516Z,17.90
2018-11-28T20:56:48.704Z,16.63
2018-11-28T20:59:16.900Z,17.83
2018-11-28T21:01:45.088Z,18.13
2018-11-28T21:04:13.257Z,17.20
2018-11-28T21:06:41.412Z,16.50
2018-11-28T21:09:10.341Z,16.77
2018-11-28T21:11:38.517Z,16.80
2018-11-28T21:14:06.672Z,17.20
2018-11-28T21:16:34.845Z,17.60
2018-11-28T21:19:03.028Z,17.07
2018-11-28T21:21:31.308Z,18.37
2018-11-28T21:23:59.434Z,17.90
2018-11-28T21:26:27.600Z,18.37
2018-11-28T21:28:55.780Z,18.30
2018-11-28T21:31:23.949Z,19.47
2018-11-28T21:33:52.194Z,17.93
2018-11-28T21:36:20.364Z,18.43
2018-11-28T21:38:48.503Z,19.13
2018-11-28T21:41:16.683Z,19.67
2018-11-28T21:46:22.419Z,19.57
2018-11-28T21:48:51.041Z,19.93
2018-11-28T21:51:19.216Z,20.13
2018-11-28T21:53:47.381Z,18.53
2018-11-28T21:56:15.567Z,18.00
2018-11-28T21:58:43.751Z,18.90
2018-11-28T22:01:11.907Z,18.63
2018-11-28T22:03:40.051Z,18.10
2018-11-28T22:06:08.220Z,19.17
2018-11-28T22:08:36.391Z,19.13
2018-11-28T22:11:04.541Z,18.70
2018-11-28T22:13:32.724Z,18.63
2018-11-28T22:16:00.867Z,18.90
2018-11-28T22:18:29.031Z,18.47
2018-11-28T22:20:57.184Z,18.87
2018-11-28T22:23:25.353Z,18.20
2018-11-28T22:25:53.544Z,19.80
2018-11-28T22:28:21.752Z,18.80
2018-11-28T22:30:49.914Z,18.43
2018-11-28T22:33:18.241Z,17.80
2018-11-28T22:35:46.295Z,18.90
2018-11-28T22:38:14.484Z,17.33
2018-11-28T22:40:42.687Z,18.37
2018-11-28T22:43:10.851Z,17.87
2018-11-28T22:45:38.998Z,19.70
2018-11-28T22:48:07.144Z,18.13
2018-11-28T22:50:35.301Z,18.47
2018-11-28T22:53:03.500Z,16.53
2018-11-28T22:55:31.696Z,18.00
2018-11-28T22:57:59.882Z,18.37
2018-11-28T23:00:34.128Z,17.87
2018-11-28T23:03:05.744Z,17.73
2018-11-28T23:06:05.258Z,17.73
2018-11-28T23:08:33.601Z,16.77
2018-11-28T23:11:01.768Z,16.43
2018-11-28T23:13:29.927Z,17.17
2018-11-28T23:15:58.067Z,16.97
2018-11-28T23:18:26.230Z,17.03
2018-11-28T23:20:54.400Z,18.03
2018-11-28T23:23:22.555Z,17.30
2018-11-28T23:25:50.709Z,19.43
2018-11-28T23:28:18.874Z,17.37
2018-11-28T23:30:47.050Z,16.87
2018-11-28T23:33:16.195Z,18.37
2018-11-28T23:35:43.360Z,18.40
2018-11-28T23:38:11.589Z,17.17
2018-11-28T23:40:39.723Z,17.10
2018-11-28T23:43:07.876Z,18.17
2018-11-28T23:45:36.047Z,18.50
2018-11-28T23:48:04.334Z,19.60
2018-11-28T23:50:32.478Z,17.80
2018-11-28T23:53:00.665Z,17.90
2018-11-28T23:55:30.697Z,18.67
2018-11-28T23:57:58.862Z,18.07
